Map

Track Data

SID SEASON NUMBER BASIN SUBBASIN NAME ISO_TIME NATURE LAT LON WMO_WIND WMO_PRES WMO_AGENCY TRACK_TYPE DIST2LAND LANDFALL IFLAG USA_AGENCY USA_ATCF_ID USA_LAT USA_LON USA_RECORD USA_STATUS USA_WIND USA_PRES USA_SSHS USA_R34_NE USA_R34_SE USA_R34_SW USA_R34_NW USA_R50_NE USA_R50_SE USA_R50_SW USA_R50_NW USA_R64_NE USA_R64_SE USA_R64_SW USA_R64_NW USA_POCI USA_ROCI USA_RMW USA_EYE TOKYO_LAT TOKYO_LON TOKYO_GRADE TOKYO_WIND TOKYO_PRES TOKYO_R50_DIR TOKYO_R50_LONG TOKYO_R50_SHORT TOKYO_R30_DIR TOKYO_R30_LONG TOKYO_R30_SHORT TOKYO_LAND CMA_LAT CMA_LON CMA_CAT CMA_WIND CMA_PRES HKO_LAT HKO_LON HKO_CAT HKO_WIND HKO_PRES NEWDELHI_LAT NEWDELHI_LON NEWDELHI_GRADE NEWDELHI_WIND NEWDELHI_PRES NEWDELHI_CI NEWDELHI_DP NEWDELHI_POCI REUNION_LAT REUNION_LON REUNION_TYPE REUNION_WIND REUNION_PRES REUNION_TNUM REUNION_CI REUNION_RMW REUNION_R34_NE REUNION_R34_SE REUNION_R34_SW REUNION_R34_NW REUNION_R50_NE REUNION_R50_SE REUNION_R50_SW REUNION_R50_NW REUNION_R64_NE REUNION_R64_SE REUNION_R64_SW REUNION_R64_NW BOM_LAT BOM_LON BOM_TYPE BOM_WIND BOM_PRES BOM_TNUM BOM_CI BOM_RMW BOM_R34_NE BOM_R34_SE BOM_R34_SW BOM_R34_NW BOM_R50_NE BOM_R50_SE BOM_R50_SW BOM_R50_NW BOM_R64_NE BOM_R64_SE BOM_R64_SW BOM_R64_NW BOM_ROCI BOM_POCI BOM_EYE BOM_POS_METHOD BOM_PRES_METHOD NADI_LAT NADI_LON NADI_CAT NADI_WIND NADI_PRES WELLINGTON_LAT WELLINGTON_LON WELLINGTON_WIND WELLINGTON_PRES DS824_LAT DS824_LON DS824_STAGE DS824_WIND DS824_PRES TD9636_LAT TD9636_LON TD9636_STAGE TD9636_WIND TD9636_PRES TD9635_LAT TD9635_LON TD9635_WIND TD9635_PRES TD9635_ROCI NEUMANN_LAT NEUMANN_LON NEUMANN_CLASS NEUMANN_WIND NEUMANN_PRES MLC_LAT MLC_LON MLC_CLASS MLC_WIND MLC_PRES USA_GUST BOM_GUST BOM_GUST_PER REUNION_GUST REUNION_GUST_PER USA_SEAHGT USA_SEARAD_NE USA_SEARAD_SE USA_SEARAD_SW USA_SEARAD_NW STORM_SPEED STORM_DIR
1957003N07140 1957 2 WP MM NOT_NAMED 1957-01-03 00:00:00 TS 7.16667 139.800 1000 tokyo main 995 968 OOO______OOO__ jtwc_wp WP011957 7.20000 139.400 30 -1 7.10000 140.600 2 1000 0 0 0 7.10000 140.600 1 29 1000 7.20000 139.400 TC 30 7.20000 139.400 1 30 7.20000 139.400 30 999 240 12 277
1957003N07140 1957 2 WP MM NOT_NAMED 1957-01-03 03:00:00 TS 7.24238 139.212 main 968 959 PPP______PPP__ WP011957 7.29016 138.840 32 -1 7.12022 139.945 2 997 0 0 7.14274 139.943 1 29 997 7.29016 138.840 TC 32 7.32086 138.864 1 31 7.29016 138.840 32 998 270 12 279
1957003N07140 1957 2 WP MM NOT_NAMED 1957-01-03 06:00:00 TS 7.34052 138.639 995 tokyo main 955 952 OOO______OPO__ jtwc_wp WP011957 7.40000 138.300 35 0 7.20000 139.300 9 995 0 0 0 7.20000 139.300 1 29 995 7.40000 138.300 TC 35 7.44313 138.333 1 32 7.40000 138.300 35 998 300 11 282
1957003N07140 1957 2 WP MM NOT_NAMED 1957-01-03 09:00:00 TS 7.47637 138.087 main 959 950 PPP______PPP__ WP011957 7.54242 137.792 35 0 7.37734 138.665 9 995 0 0 7.28480 138.672 1 33 995 7.54242 137.792 TC 35 7.56882 137.810 1 33 7.54242 137.792 35 997 330 11 285
1957003N07140 1957 2 WP MM NOT_NAMED 1957-01-03 12:00:00 TS 7.63333 137.533 996 tokyo main 953 953 OOO______OOO__ jtwc_wp WP011957 7.70000 137.300 35 0 7.60000 138.000 9 996 0 0 0 7.40000 138.000 2 38 995 7.70000 137.300 TC 35 7.70000 137.300 2 35 7.70000 137.300 35 996 360 12 285
1957003N07140 1957 2 WP MM NOT_NAMED 1957-01-03 15:00:00 TS 7.78597 136.944 main 963 960 PPP______PPP__ WP011957 7.84994 136.800 37 0 7.80748 137.258 9 995 0 0 7.52009 137.200 2 38 995 7.84994 136.800 TC 37 7.83843 136.805 2 36 7.84994 136.800 37 995 390 12 285
1957003N07140 1957 2 WP MM NOT_NAMED 1957-01-03 18:00:00 TS 7.94742 136.352 995 tokyo main 967 967 OOO______OPO__ jtwc_wp WP011957 8.00000 136.300 40 0 8.00000 136.500 9 995 0 0 0 7.70000 136.400 2 38 995 8.00000 136.300 TC 40 7.98454 136.315 2 37 8.00000 136.300 40 995 420 12 287
1957003N07140 1957 2 WP MM NOT_NAMED 1957-01-03 21:00:00 TS 8.12797 135.791 main 986 961 PPP______PPP__ WP011957 8.14238 135.815 40 0 8.17245 135.770 9 996 0 0 8.02985 135.713 2 38 995 8.14238 135.815 TC 40 8.13839 135.817 2 38 8.14238 135.815 40 994 420 12 288
1957003N07140 1957 2 WP MM NOT_NAMED 1957-01-04 00:00:00 TS 8.30000 135.233 998 tokyo main 950 896 OOO______OOO__ jtwc_wp WP011957 8.30000 135.300 40 0 8.30000 135.100 9 998 0 0 0 8.30000 135.100 2 38 995 8.30000 135.300 TC 40 8.30000 135.300 2 40 8.30000 135.300 40 994 420 12 286
1957003N07140 1957 2 WP MM NOT_NAMED 1957-01-04 03:00:00 TS 8.45423 134.661 main 896 832 PPP______PPP__ WP011957 8.50001 134.708 40 0 8.41722 134.550 9 996 0 0 8.33229 134.550 2 38 995 8.50001 134.708 TC 40 8.47587 134.743 2 40 8.50001 134.708 40 993 420 12 283
1957003N07140 1957 2 WP MM NOT_NAMED 1957-01-04 06:00:00 TS 8.55957 134.078 995 tokyo main 832 766 OOO______OPO__ jtwc_wp WP011957 8.70000 134.100 40 0 8.40000 134.000 9 995 0 0 0 8.20000 134.000 2 38 995 8.70000 134.100 TC 40 8.65742 134.165 2 40 8.70000 134.100 40 993 420 12 276
1957003N07140 1957 2 WP MM NOT_NAMED 1957-01-04 09:00:00 TS 8.57873 133.481 main 766 701 PPP______PPP__ WP011957 8.85738 133.542 40 0 8.12256 133.307 9 995 0 0 7.94243 133.372 2 38 995 8.85738 133.542 TC 40 8.83523 133.580 2 40 8.85738 133.542 40 993 420 12 271
1957003N07140 1957 2 WP MM NOT_NAMED 1957-01-04 12:00:00 TS 8.58333 132.883 995 tokyo main 701 636 OOO______OOO__ jtwc_wp WP011957 9.00000 133.000 40 0 7.80000 132.600 9 995 0 0 0 7.70000 132.700 2 38 995 9.00000 133.000 TC 40 9.00000 133.000 2 40 9.00000 133.000 40 993 420 12 274
1957003N07140 1957 2 WP MM NOT_NAMED 1957-01-04 15:00:00 TS 8.65153 132.307 main 637 583 PPP______PPP__ WP011957 9.15742 132.450 40 0 7.66229 132.000 9 995 0 0 7.63976 132.038 2 38 995 9.15742 132.450 TC 40 9.13487 132.455 2 40 9.15742 132.450 40 993 390 12 278
1957003N07140 1957 2 WP MM NOT_NAMED 1957-01-04 18:00:00 TS 8.74281 131.719 995 tokyo main 572 510 OOO______OPO__ jtwc_wp WP011957 9.30000 131.900 40 0 7.60000 131.400 9 995 0 0 0 7.70000 131.300 2 38 995 9.30000 131.900 TC 40 9.25688 131.915 2 40 9.30000 131.900 40 993 360 12 278
1957003N07140 1957 2 WP MM NOT_NAMED 1957-01-04 21:00:00 TS 8.81925 131.082 main 510 450 PPP______PPP__ WP011957 9.39988 131.357 40 0 7.53506 130.693 9 995 0 0 7.80534 130.363 2 33 995 9.39988 131.357 TC 40 9.37546 131.367 2 40 9.39988 131.357 40 993 360 13 278
1957003N07140 1957 2 WP MM NOT_NAMED 1957-01-05 00:00:00 TS 8.91667 130.450 995 tokyo main 450 391 OOO______OOO__ jtwc_wp WP011957 9.50000 130.800 40 0 7.50000 130.000 9 995 0 0 0 8.00000 129.500 1 29 995 9.50000 130.800 TC 40 9.50000 130.800 2 40 9.50000 130.800 40 994 360 12 281
1957003N07140 1957 2 WP MM NOT_NAMED 1957-01-05 03:00:00 TS 9.04985 129.870 main 391 332 PPP______PPP__ WP011957 9.64240 130.215 40 0 7.45489 129.412 9 995 0 0 8.26219 128.967 1 29 995 9.64240 130.215 TC 40 9.65485 130.197 2 40 9.64240 130.215 40 994 330 12 285
1957003N07140 1957 2 WP MM NOT_NAMED 1957-01-05 06:00:00 TS 9.21913 129.312 995 tokyo main 332 282 OOO______OPO__ jtwc_wp WP011957 9.80000 129.600 40 0 7.50000 128.900 9 995 0 0 0 8.60000 128.600 1 29 995 9.80000 129.600 TC 40 9.81478 129.573 2 40 9.80000 129.600 40 995 300 12 289
1957003N07140 1957 2 WP MM NOT_NAMED 1957-01-05 09:00:00 TS 9.42405 128.750 main 282 224 PPP______PPP__ WP011957 9.95742 128.958 40 0 7.71238 128.443 9 995 0 0 8.99237 128.250 1 29 995 9.95742 128.958 TC 40 9.96731 128.937 2 40 9.95742 128.958 40 996 330 12 290
1957003N07140 1957 2 WP MM NOT_NAMED 1957-01-05 12:00:00 TS 9.63333 128.183 995 tokyo main 224 167 OOO______OOO__ jtwc_wp WP011957 10.1000 128.300 40 0 8.00000 128.000 9 995 0 0 0 9.40000 127.900 1 29 995 10.1000 128.300 TC 40 10.1000 128.300 2 40 10.1000 128.300 40 997 360 12 289
1957003N07140 1957 2 WP MM NOT_NAMED 1957-01-05 15:00:00 TS 9.80986 127.592 main 167 123 PPP______PPP__ WP011957 10.2149 127.642 35 0 8.24994 127.515 9 995 0 0 9.77993 127.480 1 29 995 10.2149 127.642 TC 35 10.1845 127.630 2 37 10.2149 127.642 35 997 300 12 286
1957003N07140 1957 2 WP MM NOT_NAMED 1957-01-05 18:00:00 TS 9.95839 126.995 995 tokyo main 123 78 OOO______OPO__ jtwc_wp WP011957 10.3000 127.000 30 -1 8.50000 127.000 9 995 0 0 0 10.1000 127.000 1 29 995 10.3000 127.000 TC 30 10.2503 126.967 2 35 10.3000 127.000 30 998 240 12 283
1957003N07140 1957 2 WP MM NOT_NAMED 1957-01-05 21:00:00 TS 10.0730 126.395 main 80 62 PPP______PPP__ WP011957 10.3425 126.370 30 -1 8.75004 126.435 9 996 0 0 10.3449 126.480 1 29 996 10.3425 126.370 TC 30 10.3159 126.346 2 32 10.3425 126.370 30 998 240 12 281
1957003N07140 1957 2 WP MM NOT_NAMED 1957-01-06 00:00:00 TS 10.1833 125.833 998 tokyo main 55 0 OOO______OOO__ jtwc_wp WP011957 10.4000 125.800 30 -1 9.00000 125.900 9 998 0 0 0 10.5000 125.900 1 29 998 10.4000 125.800 TC 30 10.4000 125.800 1 30 10.4000 125.800 30 999 240 11 284
1957003N07140 1957 2 WP MM NOT_NAMED 1957-01-06 03:00:00 TS 10.3309 125.322 main 0 0 PPP______PPP__ WP011957 10.5349 125.298 30 -1 9.27239 125.470 9 999 0 0 10.5802 125.212 1 999 10.5349 125.298 TC 30 10.5278 125.359 1 30 10.5349 125.298 30 1000 240 10 288
1957003N07140 1957 2 WP MM NOT_NAMED 1957-01-06 06:00:00 TS 10.4795 124.899 1000 tokyo main 0 0 OOO______OPO__ jtwc_wp WP011957 10.7000 124.900 30 -1 9.50000 125.100 2 1000 0 0 0 10.6000 124.600 0 1000 10.7000 124.900 TC 30 10.6768 124.995 1 30 10.7000 124.900 30 1001 240 8 291
1957003N07140 1957 2 WP MM NOT_NAMED 1957-01-06 09:00:00 TS 10.6003 124.595 main 15 15 PPP______PPP__ WP011957 10.8499 124.627 30 -1 9.61489 124.757 2 1001 0 0 10.5998 124.247 0 1001 10.8499 124.627 TC 30 10.8374 124.684 1 30 10.8499 124.627 30 1001 210 6 293
1957003N07140 1957 2 WP MM NOT_NAMED 1957-01-06 12:00:00 TS 10.7167 124.333 1002 tokyo main 24 0 OOO______OOO__ jtwc_wp WP011957 11.0000 124.400 30 -1 9.70000 124.400 2 1002 0 0 0 10.6000 124.000 0 1002 11.0000 124.400 TC 30 11.0000 124.400 1 30 11.0000 124.400 30 1001 180 6 293
1957003N07140 1957 2 WP MM NOT_NAMED 1957-01-06 15:00:00 TS 10.8424 124.012 main 0 0 PPP______PPP__ WP011957 11.1500 124.100 30 -1 9.80505 123.950 2 1004 0 0 10.6425 123.700 0 1004 11.1500 124.100 TC 30 11.1569 124.123 1 30 11.1500 124.100 30 1001 210 7 297
1957003N07140 1957 2 WP MM NOT_NAMED 1957-01-06 18:00:00 TS 11.0297 123.707 1006 tokyo main 24 24 OOO______OPO__ jtwc_wp WP011957 11.3000 123.800 30 -1 10.0000 123.500 2 1006 0 0 0 10.7000 123.400 0 1006 11.3000 123.800 TC 30 11.3079 123.848 1 30 11.3000 123.800 30 1002 240 7 306
1957003N07140 1957 2 WP MM NOT_NAMED 1957-01-06 21:00:00 TS 11.2461 123.445 main 32 10 PPP______PPP__ WP011957 11.4425 123.535 30 -1 10.3525 123.125 2 1007 0 0 10.7526 123.100 0 1007 11.4425 123.535 TC 30 11.4550 123.574 1 30 11.4425 123.535 30 1002 210 7 312
1957003N07140 1957 2 WP MM NOT_NAMED 1957-01-07 00:00:00 TS 11.4667 123.217 1008 tokyo main 10 10 OOO______OOO__ jtwc_wp WP011957 11.6000 123.300 30 -1 10.8000 122.800 2 1008 0 0 0 10.8000 122.800 0 1008 11.6000 123.300 TC 30 11.6000 123.300 1 30 11.6000 123.300 30 1002 180 6 328
1957003N07140 1957 2 WP MM NOT_NAMED 1957-01-07 03:00:00 TS 11.7900 123.093 main 33 31 P________P_P__ WP011957 11.7900 123.093 30 -1 2 0 0 0 11.7900 123.093 TC 30 1 11.7900 123.093 30 1002 150 6 330
1957003N07140 1957 2 WP MM NOT_NAMED 1957-01-07 06:00:00 TS 12.0000 122.900 main 39 O________O_O__ jtwc_wp WP011957 12.0000 122.900 30 -1 12.0000 122.900 TC 30 1 12.0000 122.900 30 1003 120 6 318

Digital Typhoon Data and Search

About IBTrACS Database

This database is a web-friendly format of International Best Track Archive for Climate Stewardship (IBTrACS), a global best track data archive curated by NOAA dating back to 1842.

Updated: 2021-11-26